Main page
METAR-TAF:

METAR-TAF

Airports :

Imperatriz Airport

Imperatriz, Maranhão, Brazil

latitude: 05-32S, longitude: 047-30W, elevation: 123 m

Current weather observation

The report was made 1 hour and 23 minutes ago, at 06:00 UTC
Wind 3 kt from the East/Northeast
Temperature 24°C
Humidity 94%
Pressure 1013 hPa
Visibility 10 km or more
no clouds below 1500 m and no cumulonimbus

METAR: SBIZ 160600Z 07003KT CAVOK 24/23 Q1013

Time: 04:23 (07:23 UTC)

Forecast

The report was made 3 hours and 23 minutes ago, at 04:00 UTC
Forecast valid from 16 at 06 UTC to 16 at 18 UTC
Wind kt from the North
Visibility 10 km or more
Few clouds at a height of 1500 ft
Becoming
from 16 at 10 UTC to 16 at 12 UTC
Wind 5 kt from the East
Becoming
from 16 at 15 UTC to 16 at 17 UTC
Wind 5 kt from the East/Southeast
Scattered clouds at a height of 3000 ft

TAF: SBIZ 160400Z 1606/1618 00000KT 9999 FEW015 TN25/1608Z TX34/1617Z BECMG 1610/1612 09005KT BECMG 1615/1617 12005KT SCT030 RMK PEH

Weather observations and forecasts of more than 4000 airports (METAR and TAF reports).

The available stations are represented by yellow and red dots on the map.

Hover mouse over dot to see the name of the station.

Then click to see weather observations and forecasts.

To change the map : click on the green buttons with a black cross to zoom in, on the green button with a dash to zoom out, or on the green arrows for adjacent maps.


METAR-TAF: